Time;durP1;ratioP1;P1;durP2;ratioP2;P2;SDS_P1;SDS_P2;PMS_P1;PMS_P2;Temp;Humidity;BMP_temperature;BMP_pressure;BME280_temperature;BME280_humidity;BME280_pressure;Samples;Min_cycle;Max_cycle;Signal;HPM_P1;HPM_P2
2022/09/16 00:01:24;;;;;;;4.57;0.15;;;12.70;99.90;;;;;;5095997;28;20489;-38
2022/09/16 00:03:54;;;;;;;2.35;0.10;;;12.70;99.90;;;;;;5104827;28;20040;-38
2022/09/16 00:06:28;;;;;;;2.35;0.25;;;12.70;99.90;;;;;;5096951;28;20035;-39
2022/09/16 00:08:56;;;;;;;5.00;0.82;;;12.70;99.90;;;;;;5100480;28;20105;-39
2022/09/16 00:11:23;;;;;;;3.53;0.30;;;12.80;99.90;;;;;;5086627;28;20587;-38
2022/09/16 00:13:49;;;;;;;4.30;0.20;;;12.80;99.90;;;;;;5095296;28;20565;-39
2022/09/16 00:16:25;;;;;;;3.72;0.75;;;12.70;99.90;;;;;;5097595;28;20050;-39
2022/09/16 00:18:55;;;;;;;2.50;0.30;;;12.70;99.90;;;;;;5096534;28;20456;-39
2022/09/16 00:21:21;;;;;;;2.75;0.30;;;12.60;99.90;;;;;;5104453;28;20483;-38
2022/09/16 00:23:46;;;;;;;3.10;0.28;;;12.60;99.90;;;;;;5104812;28;20492;-38
2022/09/16 00:26:12;;;;;;;0.85;0.15;;;12.50;99.90;;;;;;5103469;28;20130;-39
2022/09/16 00:28:39;;;;;;;1.85;0.10;;;12.50;99.90;;;;;;5108072;28;20028;-39
2022/09/16 00:31:05;;;;;;;3.50;0.20;;;12.40;99.90;;;;;;5103136;28;20047;-38
2022/09/16 00:33:31;;;;;;;1.38;0.20;;;12.40;99.90;;;;;;5104612;28;20035;-37
2022/09/16 00:36:07;;;;;;;2.38;0.10;;;12.30;99.90;;;;;;5099650;28;20085;-38
2022/09/16 00:38:33;;;;;;;2.40;0.20;;;12.30;99.90;;;;;;5100548;28;20044;-38
2022/09/16 00:40:59;;;;;;;1.17;0.10;;;12.30;99.90;;;;;;5098626;28;20027;-39
2022/09/16 00:43:25;;;;;;;3.25;0.22;;;12.30;99.90;;;;;;5096268;28;20035;-39
2022/09/16 00:46:00;;;;;;;2.17;0.35;;;12.30;99.90;;;;;;5096017;28;20039;-38
2022/09/16 00:48:29;;;;;;;2.92;0.20;;;12.30;99.90;;;;;;5094579;28;20058;-37
2022/09/16 00:51:07;;;;;;;1.17;0.10;;;12.30;99.90;;;;;;5097900;28;20040;-37
2022/09/16 00:53:38;;;;;;;2.92;0.20;;;12.20;99.90;;;;;;5092857;28;20489;-37
2022/09/16 00:56:08;;;;;;;1.55;0.22;;;12.20;99.90;;;;;;5099670;28;20078;-37
2022/09/16 00:58:43;;;;;;;1.63;0.10;;;12.20;99.90;;;;;;5100622;28;20085;-37
2022/09/16 01:01:08;;;;;;;5.28;0.30;;;12.30;99.90;;;;;;5096975;28;20043;-38
2022/09/16 01:03:45;;;;;;;1.00;0.20;;;12.30;99.90;;;;;;5100292;28;20101;-38
2022/09/16 01:06:13;;;;;;;2.42;0.10;;;12.30;99.90;;;;;;5099688;28;20067;-39
2022/09/16 01:08:41;;;;;;;2.53;0.30;;;12.30;99.90;;;;;;5098097;28;20035;-37
2022/09/16 01:11:07;;;;;;;2.20;0.15;;;12.30;99.90;;;;;;5103559;28;20042;-37
2022/09/16 01:13:33;;;;;;;2.17;0.20;;;12.30;99.90;;;;;;5094763;28;20036;-37
2022/09/16 01:16:20;;;;;;;2.00;0.50;;;12.30;99.90;;;;;;5100424;28;20055;-38
2022/09/16 01:18:57;;;;;;;1.05;0.22;;;12.30;99.90;;;;;;5096717;28;20066;-37
2022/09/16 01:21:47;;;;;;;1.30;0.20;;;12.20;99.90;;;;;;5097821;28;20051;-37
2022/09/16 01:24:44;;;;;;;3.83;0.30;;;12.20;99.90;;;;;;5097935;28;20051;-38
2022/09/16 01:27:38;;;;;;;3.05;0.30;;;12.20;99.90;;;;;;5093208;27;20056;-37
2022/09/16 01:30:28;;;;;;;2.53;0.20;;;12.10;99.90;;;;;;5099120;28;20036;-37
2022/09/16 01:33:06;;;;;;;1.58;0.20;;;12.10;99.90;;;;;;5095238;28;20044;-38
2022/09/16 01:35:41;;;;;;;1.73;0.20;;;12.20;99.90;;;;;;5101150;28;20043;-36
2022/09/16 01:38:24;;;;;;;1.17;0.30;;;12.20;99.90;;;;;;5099848;28;20089;-37
2022/09/16 01:41:23;;;;;;;4.80;0.20;;;12.20;99.90;;;;;;5097436;28;20031;-37
2022/09/16 01:44:10;;;;;;;1.38;0.13;;;12.20;99.90;;;;;;5090574;28;20078;-37
2022/09/16 01:46:58;;;;;;;2.83;1.00;;;12.20;99.90;;;;;;5094306;28;20070;-36
2022/09/16 01:49:56;;;;;;;2.45;0.13;;;12.20;99.90;;;;;;5102822;28;20032;-37
2022/09/16 01:52:45;;;;;;;2.22;0.20;;;12.20;99.90;;;;;;5093988;28;20107;-37
2022/09/16 01:55:21;;;;;;;1.83;0.10;;;12.20;99.90;;;;;;5096887;28;20047;-38
2022/09/16 01:58:05;;;;;;;1.60;0.20;;;12.20;99.90;;;;;;5094257;28;20039;-37
2022/09/16 02:00:32;;;;;;;1.95;0.47;;;12.20;99.90;;;;;;5093678;28;20032;-39
2022/09/16 02:03:06;;;;;;;2.35;0.30;;;12.20;99.90;;;;;;5093513;28;20063;-38
2022/09/16 02:05:48;;;;;;;1.90;0.13;;;12.20;99.90;;;;;;5097017;28;20043;-37
2022/09/16 02:08:30;;;;;;;2.00;0.40;;;12.10;99.90;;;;;;5093047;28;20036;-37
2022/09/16 02:10:58;;;;;;;0.37;0.20;;;12.10;99.90;;;;;;5098454;28;20039;-37
2022/09/16 02:13:33;;;;;;;3.60;0.20;;;12.10;99.90;;;;;;5100330;28;20046;-38
2022/09/16 02:16:04;;;;;;;1.58;0.30;;;12.00;99.90;;;;;;5097401;28;20048;-37
2022/09/16 02:18:34;;;;;;;0.85;0.25;;;12.00;99.90;;;;;;5098718;28;20386;-38
2022/09/16 02:21:03;;;;;;;1.25;0.10;;;12.00;99.90;;;;;;5092111;28;20056;-37
2022/09/16 02:23:35;;;;;;;2.17;0.20;;;12.00;99.90;;;;;;5096384;28;20040;-37
2022/09/16 02:26:04;;;;;;;4.45;0.28;;;12.00;99.90;;;;;;5094842;28;20561;-36
2022/09/16 02:28:35;;;;;;;3.30;0.40;;;12.00;99.90;;;;;;5080240;28;20028;-37
2022/09/16 02:31:05;;;;;;;0.97;0.20;;;12.10;99.90;;;;;;5097973;28;20118;-37
2022/09/16 02:33:56;;;;;;;4.65;0.43;;;12.10;99.90;;;;;;5096486;28;20278;-36
2022/09/16 02:36:24;;;;;;;2.20;0.20;;;12.10;99.90;;;;;;5100987;28;20121;-39
2022/09/16 02:39:08;;;;;;;1.38;0.20;;;12.10;99.90;;;;;;5096556;28;20514;-37
2022/09/16 02:41:35;;;;;;;0.88;0.15;;;12.10;99.90;;;;;;5095752;28;20131;-37
2022/09/16 02:44:02;;;;;;;0.82;0.30;;;12.20;99.90;;;;;;5096795;28;20036;-37
2022/09/16 02:46:44;;;;;;;2.08;0.20;;;12.10;99.90;;;;;;5098468;28;20516;-37
2022/09/16 02:49:26;;;;;;;0.43;0.20;;;12.10;99.90;;;;;;5105255;28;20043;-36
2022/09/16 02:52:01;;;;;;;2.92;0.20;;;12.00;99.90;;;;;;5100196;28;20040;-37
2022/09/16 02:54:41;;;;;;;1.83;0.20;;;12.00;99.90;;;;;;5092744;28;20058;-37
2022/09/16 02:57:08;;;;;;;2.17;0.10;;;11.90;99.90;;;;;;5090927;28;20535;-38
2022/09/16 02:59:34;;;;;;;5.13;0.30;;;11.90;99.90;;;;;;5098616;28;20523;-37
2022/09/16 03:02:00;;;;;;;5.53;0.20;;;11.80;99.90;;;;;;5094748;28;20083;-37
2022/09/16 03:04:27;;;;;;;2.47;0.20;;;11.80;99.90;;;;;;5101169;28;20028;-37
2022/09/16 03:06:52;;;;;;;1.63;0.17;;;11.70;99.90;;;;;;5100078;28;20602;-37
2022/09/16 03:09:22;;;;;;;1.65;0.10;;;11.70;99.90;;;;;;5097371;28;20040;-37
2022/09/16 03:12:13;;;;;;;2.47;0.35;;;11.70;99.90;;;;;;5073207;28;20040;-37
2022/09/16 03:15:05;;;;;;;0.80;0.10;;;11.70;99.90;;;;;;5095549;28;20024;-37
2022/09/16 03:17:39;;;;;;;2.08;0.55;;;11.70;99.90;;;;;;5065025;28;20075;-37
2022/09/16 03:20:39;;;;;;;1.60;0.20;;;11.80;99.90;;;;;;5092657;28;20507;-37
2022/09/16 03:23:33;;;;;;;1.13;0.15;;;11.80;99.90;;;;;;5098333;28;20043;-36
2022/09/16 03:26:04;;;;;;;1.08;0.10;;;11.80;99.90;;;;;;5094345;28;20054;-44
2022/09/16 03:28:39;;;;;;;3.80;0.20;;;11.90;99.90;;;;;;5102105;28;20054;-37
2022/09/16 03:31:10;;;;;;;5.68;0.40;;;11.90;99.90;;;;;;5097866;28;20112;-37
2022/09/16 03:33:42;;;;;;;0.73;0.20;;;11.80;99.90;;;;;;5102275;28;20051;-37
2022/09/16 03:36:11;;;;;;;1.23;0.30;;;11.80;99.90;;;;;;5097278;28;20130;-38
2022/09/16 03:38:39;;;;;;;2.85;0.25;;;11.70;99.90;;;;;;5095020;28;20556;-37
2022/09/16 03:41:06;;;;;;;0.82;0.28;;;11.70;99.90;;;;;;5106653;28;20048;-37
2022/09/16 03:43:32;;;;;;;2.72;0.22;;;11.60;99.90;;;;;;5097356;28;20036;-37
2022/09/16 03:45:58;;;;;;;2.15;0.25;;;11.60;99.90;;;;;;5095334;28;20040;-37
2022/09/16 03:48:24;;;;;;;2.00;0.20;;;11.60;99.90;;;;;;5105559;28;20481;-38
2022/09/16 03:50:49;;;;;;;1.90;0.20;;;11.50;99.90;;;;;;5101562;28;20044;-37
2022/09/16 03:53:15;;;;;;;4.93;0.20;;;11.50;99.90;;;;;;5097610;28;20503;-37
2022/09/16 03:55:41;;;;;;;1.13;0.20;;;11.50;99.90;;;;;;5111288;28;20039;-37
2022/09/16 03:58:06;;;;;;;2.38;0.30;;;11.60;99.90;;;;;;5103681;28;20036;-37
2022/09/16 04:00:32;;;;;;;4.45;0.40;;;11.60;99.90;;;;;;5096919;28;20598;-37
2022/09/16 04:02:59;;;;;;;2.95;0.35;;;11.60;99.90;;;;;;5093667;28;20724;-37
2022/09/16 04:05:25;;;;;;;1.58;0.20;;;11.60;99.90;;;;;;5103064;28;20046;-37
2022/09/16 04:07:51;;;;;;;3.80;0.20;;;11.60;99.90;;;;;;5100062;28;20494;-37
2022/09/16 04:10:18;;;;;;;2.30;0.20;;;11.70;99.90;;;;;;5106453;28;20085;-37
2022/09/16 04:12:43;;;;;;;2.65;0.30;;;11.70;99.90;;;;;;5105800;28;20054;-38
2022/09/16 04:15:10;;;;;;;2.35;0.28;;;11.70;99.90;;;;;;5096330;28;20032;-37
2022/09/16 04:17:36;;;;;;;3.75;0.50;;;11.80;99.90;;;;;;5098728;28;20493;-37
2022/09/16 04:20:03;;;;;;;1.17;0.10;;;11.80;99.90;;;;;;5100525;28;20047;-37
2022/09/16 04:22:30;;;;;;;3.50;0.35;;;11.80;99.90;;;;;;5096191;28;20060;-37
2022/09/16 04:24:56;;;;;;;2.92;0.50;;;11.80;99.90;;;;;;5101616;28;20039;-36
2022/09/16 04:27:22;;;;;;;2.80;0.38;;;11.80;99.90;;;;;;5097179;27;20036;-38
2022/09/16 04:29:48;;;;;;;2.83;0.30;;;11.80;99.90;;;;;;5097805;28;20035;-37
2022/09/16 04:32:14;;;;;;;4.28;0.40;;;11.70;99.90;;;;;;5099038;28;20132;-38
2022/09/16 04:34:40;;;;;;;3.13;0.25;;;11.70;99.90;;;;;;5107146;28;20790;-37
2022/09/16 04:37:06;;;;;;;4.65;0.40;;;11.70;99.90;;;;;;5105142;28;20032;-37
2022/09/16 04:39:31;;;;;;;3.72;0.38;;;11.70;99.90;;;;;;5106025;28;20038;-37
2022/09/16 04:41:58;;;;;;;6.32;0.90;;;11.70;99.90;;;;;;5105198;28;20446;-37
2022/09/16 04:44:25;;;;;;;2.20;0.22;;;11.60;99.90;;;;;;5095335;28;20039;-38
2022/09/16 04:46:51;;;;;;;3.75;0.28;;;11.60;99.90;;;;;;5108632;27;20038;-38
2022/09/16 04:49:17;;;;;;;4.03;0.45;;;11.60;99.90;;;;;;5094910;28;20032;-37
2022/09/16 04:51:43;;;;;;;5.15;0.40;;;11.60;99.90;;;;;;5093566;28;20422;-37
2022/09/16 04:54:10;;;;;;;3.78;0.45;;;11.60;99.90;;;;;;5107474;28;20088;-37
2022/09/16 04:56:36;;;;;;;1.83;0.30;;;11.60;99.90;;;;;;5101689;28;20036;-37
2022/09/16 04:59:04;;;;;;;6.50;0.40;;;11.60;99.90;;;;;;5100804;28;20488;-37
2022/09/16 05:01:32;;;;;;;6.35;0.40;;;11.60;99.90;;;;;;5095615;28;20077;-37
2022/09/16 05:04:01;;;;;;;2.25;0.38;;;11.60;99.90;;;;;;5096615;28;20137;-37
2022/09/16 05:06:29;;;;;;;2.63;0.20;;;11.60;99.90;;;;;;5105060;28;20507;-37
2022/09/16 05:08:56;;;;;;;3.20;0.30;;;11.50;99.90;;;;;;5101813;28;20115;-40
2022/09/16 05:11:25;;;;;;;3.97;0.40;;;11.60;99.90;;;;;;5093928;28;20117;-37
2022/09/16 05:13:51;;;;;;;4.25;0.40;;;11.60;99.90;;;;;;5102533;28;20511;-38
2022/09/16 05:16:19;;;;;;;6.45;0.40;;;11.60;99.90;;;;;;5102003;28;20046;-40
2022/09/16 05:18:46;;;;;;;7.45;0.80;;;11.70;99.90;;;;;;5092710;28;20068;-38
2022/09/16 05:21:14;;;;;;;4.68;1.33;;;11.70;99.90;;;;;;5107362;28;20508;-37
2022/09/16 05:23:41;;;;;;;3.03;0.32;;;11.70;99.90;;;;;;5098464;28;20496;-37
2022/09/16 05:26:09;;;;;;;4.47;0.47;;;11.60;99.90;;;;;;5096082;28;20115;-37
2022/09/16 05:28:36;;;;;;;2.03;0.30;;;11.60;99.90;;;;;;5099157;28;20035;-37
2022/09/16 05:31:18;;;;;;;1.65;0.22;;;11.60;99.90;;;;;;5097257;28;20534;-38
2022/09/16 05:33:46;;;;;;;4.30;0.63;;;11.50;99.90;;;;;;5097209;28;20548;-37
2022/09/16 05:36:15;;;;;;;3.40;0.32;;;11.50;99.90;;;;;;5095033;28;20036;-38
2022/09/16 05:38:40;;;;;;;1.10;0.40;;;11.40;99.90;;;;;;5092558;28;20508;-38
2022/09/16 05:41:07;;;;;;;2.15;0.28;;;11.40;99.90;;;;;;5093718;28;20043;-37
2022/09/16 05:43:34;;;;;;;4.95;1.48;;;11.40;99.90;;;;;;5091274;28;20393;-36
2022/09/16 05:46:01;;;;;;;6.30;0.50;;;11.40;99.90;;;;;;5093751;28;20039;-38
2022/09/16 05:48:27;;;;;;;5.03;0.40;;;11.40;99.90;;;;;;5091762;28;20097;-37
2022/09/16 05:50:53;;;;;;;2.30;0.30;;;11.30;99.90;;;;;;5093374;28;20063;-38
2022/09/16 05:53:20;;;;;;;3.45;0.25;;;11.30;99.90;;;;;;5093929;28;20541;-39
2022/09/16 05:56:07;;;;;;;3.85;0.32;;;11.30;99.90;;;;;;5091861;28;20043;-38
2022/09/16 05:58:34;;;;;;;4.13;0.40;;;11.30;99.90;;;;;;5082179;28;20098;-38
2022/09/16 06:01:11;;;;;;;3.70;1.17;;;11.20;99.90;;;;;;5089026;28;20101;-38
2022/09/16 06:03:40;;;;;;;3.53;0.32;;;11.20;99.90;;;;;;5092636;28;20044;-37
2022/09/16 06:06:12;;;;;;;5.38;0.68;;;11.20;99.90;;;;;;5103133;28;20500;-37
2022/09/16 06:08:38;;;;;;;2.63;0.32;;;11.20;99.90;;;;;;5099206;28;20028;-37
2022/09/16 06:11:07;;;;;;;1.95;0.25;;;11.20;99.90;;;;;;5098623;28;20411;-47
2022/09/16 06:13:34;;;;;;;5.05;0.20;;;11.20;99.90;;;;;;5091712;28;20039;-37
2022/09/16 06:16:00;;;;;;;9.30;0.40;;;11.30;99.90;;;;;;5091390;28;20042;-36
2022/09/16 06:18:28;;;;;;;4.13;0.40;;;11.30;99.90;;;;;;5099505;28;20051;-36
2022/09/16 06:20:54;;;;;;;3.28;0.40;;;11.30;99.90;;;;;;5092755;28;20097;-37
2022/09/16 06:23:21;;;;;;;4.32;0.40;;;11.30;99.90;;;;;;5096695;28;20497;-38
2022/09/16 06:25:47;;;;;;;5.07;0.30;;;11.30;99.90;;;;;;5092758;28;20047;-47
2022/09/16 06:28:13;;;;;;;2.13;0.40;;;11.40;99.90;;;;;;5097483;28;20032;-38
2022/09/16 06:30:40;;;;;;;3.83;0.35;;;11.40;99.90;;;;;;5092792;28;20877;-38
2022/09/16 06:33:06;;;;;;;4.93;0.80;;;11.50;99.90;;;;;;5087574;28;20039;-38
2022/09/16 06:35:33;;;;;;;2.60;0.52;;;11.50;99.90;;;;;;5089099;28;20136;-38
2022/09/16 06:38:00;;;;;;;2.92;0.80;;;11.60;99.90;;;;;;5077461;28;20032;-39
2022/09/16 06:40:26;;;;;;;9.50;0.95;;;11.70;99.90;;;;;;5092653;28;20044;-38
2022/09/16 06:42:53;;;;;;;4.18;0.30;;;11.90;99.90;;;;;;5099142;28;20493;-37
2022/09/16 06:45:19;;;;;;;3.85;0.40;;;12.00;99.90;;;;;;5074944;28;20108;-37
2022/09/16 06:47:45;;;;;;;3.92;0.60;;;12.20;99.90;;;;;;5093148;28;20139;-38
2022/09/16 06:50:11;;;;;;;2.65;0.60;;;12.30;99.90;;;;;;5093075;28;20093;-38
2022/09/16 06:52:36;;;;;;;4.07;0.30;;;12.40;99.90;;;;;;5093733;28;20036;-36
2022/09/16 06:55:02;;;;;;;2.78;0.30;;;12.40;99.90;;;;;;5098724;28;20091;-37
2022/09/16 06:57:29;;;;;;;5.07;0.45;;;12.50;99.90;;;;;;5075244;28;20138;-37
2022/09/16 06:59:55;;;;;;;3.10;0.20;;;12.50;99.90;;;;;;5098483;28;20089;-36
2022/09/16 07:02:21;;;;;;;3.90;0.30;;;12.50;99.90;;;;;;5101895;28;20043;-43
2022/09/16 07:04:46;;;;;;;5.15;0.30;;;12.50;99.90;;;;;;5096044;28;20075;-37
2022/09/16 07:07:12;;;;;;;5.68;0.50;;;12.50;99.90;;;;;;5100591;28;20028;-37
2022/09/16 07:09:39;;;;;;;2.65;0.30;;;12.60;99.90;;;;;;5100918;28;20400;-37
2022/09/16 07:12:05;;;;;;;5.18;0.40;;;12.70;99.90;;;;;;5095951;28;20039;-37
2022/09/16 07:14:31;;;;;;;3.25;0.60;;;12.70;99.90;;;;;;5085467;28;20039;-39
2022/09/16 07:16:57;;;;;;;3.35;0.40;;;12.80;99.90;;;;;;5103950;28;20032;-37
2022/09/16 07:19:24;;;;;;;8.70;0.57;;;12.80;99.90;;;;;;5099553;28;20055;-36
2022/09/16 07:21:50;;;;;;;2.28;0.43;;;12.90;99.90;;;;;;5094903;28;20542;-37
2022/09/16 07:24:16;;;;;;;5.28;0.80;;;12.90;99.90;;;;;;5098560;28;20048;-38
2022/09/16 07:26:43;;;;;;;2.25;0.30;;;13.00;99.90;;;;;;5103730;28;20749;-38
2022/09/16 07:29:14;;;;;;;6.72;0.47;;;13.00;99.90;;;;;;5099872;28;20035;-36
2022/09/16 07:31:40;;;;;;;2.90;0.40;;;13.00;99.90;;;;;;5104248;28;20073;-37
2022/09/16 07:34:07;;;;;;;3.58;0.38;;;13.10;99.90;;;;;;5100763;28;20042;-37
2022/09/16 07:36:39;;;;;;;5.63;0.60;;;13.20;99.90;;;;;;5098884;28;20391;-38
2022/09/16 07:39:05;;;;;;;4.72;0.43;;;13.20;99.90;;;;;;5096543;27;20138;-37
2022/09/16 07:41:34;;;;;;;5.25;0.40;;;13.30;99.90;;;;;;5101991;27;20186;-37
2022/09/16 07:44:00;;;;;;;5.25;0.45;;;13.30;99.90;;;;;;5100719;28;20044;-37
2022/09/16 07:46:29;;;;;;;4.38;0.30;;;13.40;99.90;;;;;;5080486;28;20048;-37
2022/09/16 07:48:57;;;;;;;4.97;0.52;;;13.50;99.90;;;;;;5095159;28;20046;-38
2022/09/16 07:51:24;;;;;;;4.40;0.50;;;13.60;99.90;;;;;;5079798;28;20036;-37
2022/09/16 07:54:04;;;;;;;2.90;0.30;;;13.70;99.90;;;;;;5076915;28;20483;-37
2022/09/16 07:56:33;;;;;;;3.95;0.35;;;13.80;99.90;;;;;;5098278;28;20098;-37
2022/09/16 07:58:59;;;;;;;5.88;0.70;;;13.80;99.90;;;;;;5094123;28;20040;-38
2022/09/16 08:01:25;;;;;;;4.90;0.50;;;13.70;99.90;;;;;;5098672;28;20707;-37
2022/09/16 08:03:51;;;;;;;8.10;0.60;;;13.70;99.90;;;;;;5096199;28;20473;-38
2022/09/16 08:06:20;;;;;;;2.83;0.35;;;13.80;99.90;;;;;;5100124;28;20081;-37
2022/09/16 08:08:46;;;;;;;5.72;0.47;;;13.90;99.90;;;;;;5100049;28;20032;-37
2022/09/16 08:11:13;;;;;;;4.78;0.22;;;14.00;99.90;;;;;;5107235;28;20119;-38
2022/09/16 08:13:40;;;;;;;5.22;0.40;;;14.00;99.90;;;;;;5101796;28;20122;-38
2022/09/16 08:16:15;;;;;;;2.50;0.50;;;14.10;99.90;;;;;;5097688;27;20397;-38
2022/09/16 08:18:42;;;;;;;4.47;0.38;;;14.10;99.90;;;;;;5101146;28;20043;-35
2022/09/16 08:21:10;;;;;;;4.03;0.43;;;14.20;99.90;;;;;;5103063;28;20632;-36
2022/09/16 08:23:36;;;;;;;2.28;0.43;;;14.20;99.90;;;;;;5101576;28;20051;-36
2022/09/16 08:26:02;;;;;;;4.90;0.35;;;14.30;99.90;;;;;;5094900;28;20439;-36
2022/09/16 08:28:29;;;;;;;5.65;0.38;;;14.40;99.90;;;;;;5106130;28;20075;-36
2022/09/16 08:30:58;;;;;;;7.03;1.27;;;14.40;99.90;;;;;;5098536;28;20509;-38
2022/09/16 08:33:24;;;;;;;3.28;0.30;;;14.60;99.90;;;;;;5104438;28;20501;-38
2022/09/16 08:36:16;;;;;;;5.47;0.60;;;14.70;99.90;;;;;;5094801;28;20123;-38
2022/09/16 08:38:43;;;;;;;4.95;0.40;;;14.80;99.90;;;;;;5093113;27;20077;-38
2022/09/16 08:41:32;;;;;;;4.30;0.80;;;14.90;99.90;;;;;;5097836;28;20078;-36
2022/09/16 08:44:15;;;;;;;6.13;0.82;;;14.90;99.90;;;;;;5100016;28;20079;-37
2022/09/16 08:46:52;;;;;;;4.18;0.20;;;15.00;99.90;;;;;;5099765;28;20040;-38
2022/09/16 08:49:37;;;;;;;3.78;0.35;;;15.10;99.90;;;;;;5075363;28;20582;-38
2022/09/16 08:52:11;;;;;;;4.75;0.95;;;15.20;97.30;;;;;;5095482;28;20595;-37
2022/09/16 08:54:39;;;;;;;3.83;0.52;;;15.20;99.50;;;;;;5097256;28;20126;-37
2022/09/16 08:57:14;;;;;;;4.35;0.77;;;15.30;99.10;;;;;;5100220;28;20039;-38
2022/09/16 08:59:47;;;;;;;6.70;0.50;;;15.30;98.70;;;;;;5081081;28;20043;-37
2022/09/16 09:02:46;;;;;;;7.53;0.73;;;15.40;98.70;;;;;;5100412;28;20052;-38
2022/09/16 09:05:31;;;;;;;3.90;0.77;;;15.50;98.70;;;;;;5098049;28;20032;-37
2022/09/16 09:08:19;;;;;;;5.97;0.65;;;15.60;98.80;;;;;;5098292;28;20032;-36
2022/09/16 09:11:10;;;;;;;7.80;0.90;;;15.60;98.00;;;;;;5094265;28;20079;-36
2022/09/16 09:13:44;;;;;;;7.60;0.98;;;15.50;96.70;;;;;;5038235;28;20532;-36
2022/09/16 09:16:31;;;;;;;8.20;0.90;;;15.40;96.10;;;;;;5103168;28;20035;-35
2022/09/16 09:19:11;;;;;;;9.63;1.77;;;15.60;95.60;;;;;;5100531;28;20090;-35
2022/09/16 09:21:56;;;;;;;4.80;0.80;;;15.70;95.00;;;;;;5097818;28;20052;-35
2022/09/16 09:24:33;;;;;;;4.65;0.57;;;15.90;92.50;;;;;;5099293;28;20109;-36
2022/09/16 09:27:13;;;;;;;2.65;0.65;;;15.90;91.80;;;;;;5100123;28;20032;-36
2022/09/16 09:30:06;;;;;;;4.80;0.68;;;15.90;90.40;;;;;;5097409;28;20040;-36
2022/09/16 09:32:47;;;;;;;5.55;0.82;;;16.00;90.50;;;;;;5102871;28;20492;-36
2022/09/16 09:35:28;;;;;;;7.30;0.57;;;16.20;90.30;;;;;;5096932;28;20473;-36
2022/09/16 09:38:03;;;;;;;8.30;0.60;;;16.40;88.90;;;;;;5099749;28;20119;-35
2022/09/16 09:40:42;;;;;;;9.45;0.63;;;16.40;87.70;;;;;;5084492;28;20534;-35
2022/09/16 09:43:18;;;;;;;6.95;0.50;;;16.50;80.80;;;;;;5093180;28;20032;-37
2022/09/16 09:46:02;;;;;;;6.15;0.50;;;16.60;85.60;;;;;;5095543;28;20039;-37
2022/09/16 09:48:39;;;;;;;2.95;0.55;;;16.50;87.00;;;;;;5094819;28;20106;-37
2022/09/16 09:51:30;;;;;;;6.72;0.60;;;16.30;86.30;;;;;;5095021;28;20043;-37
2022/09/16 09:54:04;;;;;;;3.63;0.75;;;16.00;88.30;;;;;;5092534;28;20048;-36
2022/09/16 09:56:37;;;;;;;6.35;0.73;;;15.80;89.90;;;;;;5099931;28;20036;-37
2022/09/16 09:59:29;;;;;;;3.65;0.40;;;15.80;90.00;;;;;;5094775;28;20173;-37
2022/09/16 10:01:56;;;;;;;3.53;0.50;;;16.00;90.30;;;;;;5092837;28;20050;-36
2022/09/16 10:04:23;;;;;;;5.55;0.80;;;16.20;89.80;;;;;;5094838;28;20040;-37
2022/09/16 10:06:51;;;;;;;6.93;0.68;;;16.40;89.30;;;;;;5099203;28;20092;-37
2022/09/16 10:09:19;;;;;;;7.40;0.57;;;16.50;87.30;;;;;;5100664;28;20040;-37
2022/09/16 10:11:53;;;;;;;10.73;0.63;;;16.70;87.40;;;;;;5105060;28;20032;-37
2022/09/16 10:14:35;;;;;;;5.65;0.57;;;16.90;87.00;;;;;;5104213;28;20444;-37
2022/09/16 10:17:13;;;;;;;6.18;0.63;;;17.10;81.10;;;;;;5098080;28;20100;-37
2022/09/16 10:20:02;;;;;;;6.75;0.65;;;17.00;78.80;;;;;;5099014;28;20528;-37
2022/09/16 10:22:30;;;;;;;5.50;0.60;;;16.90;78.70;;;;;;5101445;28;20090;-36
2022/09/16 10:25:01;;;;;;;4.97;0.60;;;16.60;85.40;;;;;;5105156;28;20074;-38
2022/09/16 10:27:32;;;;;;;8.73;1.05;;;16.20;89.90;;;;;;5101855;28;20101;-38
2022/09/16 10:30:26;;;;;;;8.27;0.90;;;15.60;91.70;;;;;;5097173;28;20040;-37
2022/09/16 10:32:59;;;;;;;4.57;0.70;;;15.10;95.00;;;;;;5087434;28;20517;-37
2022/09/16 10:35:30;;;;;;;6.60;0.65;;;14.90;95.80;;;;;;5100159;28;20047;-40
2022/09/16 10:38:08;;;;;;;7.20;0.80;;;15.00;96.90;;;;;;5101280;28;20043;-38
2022/09/16 10:40:35;;;;;;;7.22;0.60;;;15.10;96.60;;;;;;5094419;28;20035;-39
2022/09/16 10:43:05;;;;;;;5.97;0.60;;;15.20;96.80;;;;;;5091785;28;20036;-39
2022/09/16 10:45:36;;;;;;;7.63;0.60;;;15.40;95.70;;;;;;5098072;28;20082;-39
2022/09/16 10:48:15;;;;;;;5.53;0.65;;;15.60;94.50;;;;;;5065932;28;20050;-39
2022/09/16 10:50:55;;;;;;;4.63;0.70;;;15.90;93.80;;;;;;5098105;28;20549;-38
2022/09/16 10:53:43;;;;;;;7.35;1.25;;;16.20;92.00;;;;;;5093230;28;20039;-39
2022/09/16 10:56:19;;;;;;;8.57;0.70;;;16.30;90.30;;;;;;5099490;28;20036;-38
2022/09/16 10:58:44;;;;;;;6.75;0.80;;;16.20;90.70;;;;;;5093245;28;20123;-39
2022/09/16 11:01:31;;;;;;;7.03;0.77;;;15.90;91.90;;;;;;5095793;28;20127;-39
2022/09/16 11:04:12;;;;;;;10.82;1.20;;;15.80;91.30;;;;;;5074596;28;20048;-38
2022/09/16 11:06:52;;;;;;;4.05;0.50;;;15.80;92.40;;;;;;5099205;28;20511;-42
2022/09/16 11:09:55;;;;;;;6.40;0.55;;;16.20;92.10;;;;;;5098203;28;20509;-38
2022/09/16 11:12:45;;;;;;;5.13;0.47;;;16.60;90.70;;;;;;5094123;28;20520;-37
2022/09/16 11:15:42;;;;;;;2.50;0.57;;;16.20;89.20;;;;;;5099641;28;20054;-37
2022/09/16 11:18:19;;;;;;;3.88;0.43;;;15.50;91.80;;;;;;5098718;28;20341;-38
2022/09/16 11:20:53;;;;;;;7.90;0.77;;;15.10;94.40;;;;;;5101947;28;20127;-38
2022/09/16 11:23:28;;;;;;;2.60;0.65;;;15.10;96.00;;;;;;5103939;28;20047;-38
2022/09/16 11:26:12;;;;;;;5.30;0.88;;;15.20;96.60;;;;;;5098066;28;20031;-38
2022/09/16 11:28:49;;;;;;;4.18;0.50;;;15.40;97.60;;;;;;5095263;28;20043;-40
2022/09/16 11:31:34;;;;;;;5.88;0.50;;;15.70;97.50;;;;;;5084191;28;20528;-39
2022/09/16 11:34:32;;;;;;;6.13;0.60;;;15.90;95.00;;;;;;5094771;28;20035;-38
2022/09/16 11:37:09;;;;;;;5.97;1.02;;;16.10;95.60;;;;;;5040324;28;20563;-38
2022/09/16 11:40:11;;;;;;;6.88;0.75;;;16.40;93.30;;;;;;5099676;28;20048;-39
2022/09/16 11:42:52;;;;;;;8.60;0.50;;;16.50;92.30;;;;;;5100255;28;20481;-37
2022/09/16 11:45:37;;;;;;;7.80;0.93;;;16.50;92.10;;;;;;5096623;28;20043;-49
2022/09/16 11:48:27;;;;;;;7.97;0.57;;;16.60;91.10;;;;;;5097343;28;20519;-38
2022/09/16 11:51:07;;;;;;;4.78;0.70;;;16.70;91.20;;;;;;5100675;28;20055;-38
2022/09/16 11:53:50;;;;;;;6.60;0.32;;;17.00;91.20;;;;;;5100363;28;20044;-37
2022/09/16 11:56:39;;;;;;;4.25;0.85;;;16.90;90.00;;;;;;5097003;28;20059;-36
2022/09/16 11:59:13;;;;;;;7.38;0.80;;;16.70;89.90;;;;;;5103223;28;20108;-36
2022/09/16 12:01:47;;;;;;;5.38;0.85;;;16.50;90.00;;;;;;5098090;28;20046;-37
2022/09/16 12:04:36;;;;;;;4.22;0.52;;;16.60;89.50;;;;;;5103613;28;20393;-36
2022/09/16 12:07:34;;;;;;;2.88;0.40;;;16.90;86.40;;;;;;5102035;28;20069;-36
2022/09/16 12:10:16;;;;;;;4.70;0.63;;;17.20;89.30;;;;;;5054247;28;20109;-36
2022/09/16 12:12:46;;;;;;;2.40;0.30;;;17.40;87.00;;;;;;5097408;28;20042;-36
2022/09/16 12:15:14;;;;;;;5.00;0.60;;;17.60;85.00;;;;;;5099425;28;20531;-37
2022/09/16 12:17:52;;;;;;;5.80;0.50;;;17.50;83.90;;;;;;5097523;28;20043;-37
2022/09/16 12:20:21;;;;;;;6.20;0.50;;;17.70;83.00;;;;;;5085655;28;20630;-38
2022/09/16 12:23:03;;;;;;;6.38;0.63;;;17.60;84.90;;;;;;5101830;28;20041;-37
2022/09/16 12:25:39;;;;;;;7.38;0.70;;;17.30;87.40;;;;;;5099465;28;20443;-38
2022/09/16 12:28:25;;;;;;;4.00;0.50;;;17.10;89.90;;;;;;5101306;28;20098;-39
2022/09/16 12:31:24;;;;;;;5.18;0.60;;;17.20;90.50;;;;;;5082369;28;20097;-39
2022/09/16 12:34:12;;;;;;;5.15;0.40;;;17.30;90.90;;;;;;5095978;28;20064;-39
2022/09/16 12:36:41;;;;;;;4.47;0.50;;;17.00;90.60;;;;;;5106991;28;20501;-38
2022/09/16 12:39:10;;;;;;;4.50;0.50;;;16.70;90.90;;;;;;5095852;28;20043;-39
2022/09/16 12:41:54;;;;;;;1.52;0.30;;;16.40;90.50;;;;;;5097608;28;20084;-37
2022/09/16 12:44:48;;;;;;;1.40;0.47;;;16.90;89.50;;;;;;5098671;28;20401;-37
2022/09/16 12:47:50;;;;;;;5.43;0.80;;;17.60;88.70;;;;;;5096408;28;20472;-38
2022/09/16 12:50:40;;;;;;;6.60;0.68;;;18.50;84.80;;;;;;5101662;28;20039;-38
2022/09/16 12:53:48;;;;;;;6.38;0.50;;;19.20;80.10;;;;;;5096223;28;20392;-38
2022/09/16 12:56:47;;;;;;;4.97;0.68;;;19.70;71.70;;;;;;5078459;28;20036;-39
2022/09/16 12:59:42;;;;;;;5.60;0.90;;;19.40;60.50;;;;;;5098547;27;20439;-38
2022/09/16 13:02:16;;;;;;;3.47;0.35;;;18.80;63.30;;;;;;5096087;28;20159;-40
2022/09/16 13:04:46;;;;;;;4.00;0.50;;;18.50;64.40;;;;;;5093064;28;20046;-38
2022/09/16 13:07:25;;;;;;;3.65;0.50;;;18.90;63.60;;;;;;5098194;28;20759;-36
2022/09/16 13:10:05;;;;;;;6.07;0.65;;;19.30;62.60;;;;;;5084995;28;20039;-37
2022/09/16 13:12:32;;;;;;;3.85;0.60;;;19.80;62.20;;;;;;5099970;28;20077;-38
2022/09/16 13:15:00;;;;;;;5.15;0.38;;;20.10;60.40;;;;;;5099452;28;20046;-38
2022/09/16 13:17:35;;;;;;;2.28;0.63;;;20.40;59.00;;;;;;5095702;28;20497;-38
2022/09/16 13:20:12;;;;;;;6.45;0.65;;;20.40;56.80;;;;;;5092573;28;20047;-38
2022/09/16 13:22:45;;;;;;;4.57;0.60;;;20.30;59.60;;;;;;5100464;28;20094;-39